createdAt,value
2023-12-30T00:00:55.924Z,0.63
2023-12-30T00:01:58.648Z,0.80
2023-12-30T00:03:00.789Z,0.77
2023-12-30T00:04:03.329Z,0.20
2023-12-30T00:06:07.617Z,0.70
2023-12-30T00:07:09.481Z,0.38
2023-12-30T00:08:11.409Z,1.02
2023-12-30T00:10:15.618Z,0.52
2023-12-30T00:11:18.282Z,0.85
2023-12-30T00:12:20.069Z,0.82
2023-12-30T00:13:22.056Z,0.85
2023-12-30T00:14:24.420Z,0.60
2023-12-30T00:15:26.477Z,0.50
2023-12-30T00:16:30.318Z,0.85
2023-12-30T00:17:32.300Z,0.77
2023-12-30T00:18:34.289Z,0.60
2023-12-30T00:19:36.400Z,0.60
2023-12-30T00:20:38.394Z,0.70
2023-12-30T00:21:44.735Z,0.73
2023-12-30T00:22:47.070Z,0.45
2023-12-30T00:23:52.128Z,0.70
2023-12-30T00:24:53.823Z,0.52
2023-12-30T00:25:56.188Z,0.45
2023-12-30T00:26:58.103Z,0.40
2023-12-30T00:28:00.094Z,0.93
2023-12-30T00:29:01.994Z,0.75
2023-12-30T00:30:05.349Z,0.43
2023-12-30T00:31:07.197Z,0.90
2023-12-30T00:32:09.336Z,0.75
2023-12-30T00:33:11.121Z,0.68
2023-12-30T00:34:14.968Z,0.45
2023-12-30T00:35:17.185Z,1.10
2023-12-30T00:36:19.052Z,0.60
2023-12-30T00:37:22.046Z,0.35
2023-12-30T00:38:26.412Z,0.70
2023-12-30T00:39:28.771Z,0.47
2023-12-30T00:40:30.543Z,0.70
2023-12-30T00:41:53.581Z,0.50
2023-12-30T00:42:55.298Z,0.52
2023-12-30T00:43:57.631Z,0.40
2023-12-30T00:45:00.402Z,1.15
2023-12-30T00:46:03.467Z,0.77
2023-12-30T00:47:05.307Z,0.68
2023-12-30T00:48:07.850Z,0.70
2023-12-30T00:49:11.215Z,0.43
2023-12-30T00:50:13.481Z,0.77
2023-12-30T00:51:15.553Z,0.57
2023-12-30T00:52:18.089Z,0.40
2023-12-30T00:53:25.701Z,0.95
2023-12-30T00:54:34.976Z,0.57
2023-12-30T00:55:42.312Z,0.38
2023-12-30T00:56:45.061Z,0.63
2023-12-30T00:57:46.947Z,0.70
2023-12-30T00:58:48.986Z,0.90
2023-12-30T00:59:50.890Z,0.70
2023-12-30T01:00:53.727Z,0.50
2023-12-30T01:01:55.482Z,0.82
2023-12-30T01:02:57.444Z,0.68
2023-12-30T01:03:59.807Z,0.88
2023-12-30T01:05:02.338Z,0.30
2023-12-30T01:06:04.781Z,0.47
2023-12-30T01:07:06.739Z,0.60
2023-12-30T01:08:10.137Z,0.88
2023-12-30T01:09:11.874Z,0.98
2023-12-30T01:10:18.507Z,1.30
2023-12-30T01:11:20.313Z,0.70
2023-12-30T01:12:22.534Z,0.85
2023-12-30T01:13:24.352Z,1.13
2023-12-30T01:14:26.136Z,0.65
2023-12-30T01:15:28.817Z,0.63
2023-12-30T01:16:34.119Z,0.65
2023-12-30T01:17:38.426Z,0.85
2023-12-30T01:18:42.075Z,0.63
2023-12-30T01:19:44.026Z,0.57
2023-12-30T01:20:46.526Z,0.95
2023-12-30T01:21:49.350Z,0.45
2023-12-30T01:22:51.276Z,0.70
2023-12-30T01:23:53.015Z,0.45
2023-12-30T01:24:55.367Z,0.50
2023-12-30T01:26:59.516Z,0.88
2023-12-30T01:28:02.803Z,0.82
2023-12-30T01:29:04.664Z,0.43
2023-12-30T01:30:07.956Z,1.02
2023-12-30T01:31:10.334Z,0.60
2023-12-30T01:32:12.163Z,0.98
2023-12-30T01:33:15.039Z,0.82
2023-12-30T01:34:20.486Z,0.82
2023-12-30T01:35:24.007Z,0.82
2023-12-30T01:37:27.844Z,0.85
2023-12-30T01:38:32.788Z,0.43
2023-12-30T01:39:34.942Z,0.90
2023-12-30T01:40:36.773Z,0.82
2023-12-30T01:41:38.634Z,0.80
2023-12-30T01:42:42.174Z,1.15
2023-12-30T01:43:44.596Z,0.70
2023-12-30T01:44:47.019Z,0.68
2023-12-30T01:45:49.363Z,0.65
2023-12-30T01:46:51.191Z,0.80
2023-12-30T01:47:53.343Z,0.75
2023-12-30T01:48:55.320Z,0.90
2023-12-30T01:49:57.080Z,1.00
2023-12-30T01:51:00.097Z,0.90
2023-12-30T01:52:02.974Z,0.70
2023-12-30T01:53:05.573Z,1.00
2023-12-30T01:54:07.903Z,0.90
2023-12-30T01:55:10.494Z,1.08
2023-12-30T01:56:13.409Z,0.50
2023-12-30T01:57:15.257Z,1.00
2023-12-30T01:58:18.313Z,0.75
2023-12-30T01:59:21.895Z,0.95
2023-12-30T02:00:28.120Z,1.02
2023-12-30T02:01:31.050Z,0.85
2023-12-30T02:02:33.641Z,1.08
2023-12-30T02:03:35.873Z,1.02
2023-12-30T02:04:39.338Z,0.80
2023-12-30T02:05:43.353Z,0.50
2023-12-30T02:06:45.239Z,0.50
2023-12-30T02:07:48.291Z,0.68
2023-12-30T02:08:50.581Z,0.63
2023-12-30T02:09:53.094Z,0.73
2023-12-30T02:11:58.345Z,0.90
2023-12-30T02:13:00.493Z,0.63
2023-12-30T02:14:03.099Z,0.73
2023-12-30T02:15:14.652Z,0.60
2023-12-30T02:16:16.877Z,0.63
2023-12-30T02:17:22.641Z,0.88
2023-12-30T02:18:24.449Z,0.65
2023-12-30T02:19:26.568Z,0.85
2023-12-30T02:20:28.636Z,0.60
2023-12-30T02:21:30.514Z,0.65
2023-12-30T02:22:34.994Z,0.93
2023-12-30T02:23:39.480Z,0.90
2023-12-30T02:24:42.131Z,0.73
2023-12-30T02:25:45.284Z,0.60
2023-12-30T02:26:48.078Z,0.55
2023-12-30T02:28:51.910Z,0.25
2023-12-30T02:29:53.670Z,0.65
2023-12-30T02:30:55.609Z,0.50
2023-12-30T02:31:57.777Z,0.80
2023-12-30T02:32:59.862Z,0.77
2023-12-30T02:34:01.872Z,0.50
2023-12-30T02:35:04.148Z,0.82
2023-12-30T02:36:07.008Z,1.05
2023-12-30T02:37:09.276Z,0.47
2023-12-30T02:38:11.063Z,0.82
2023-12-30T02:39:13.240Z,0.68
2023-12-30T02:40:15.415Z,0.52
2023-12-30T02:41:20.418Z,0.60
2023-12-30T02:42:22.198Z,0.52
2023-12-30T02:43:26.088Z,0.60
2023-12-30T02:44:28.287Z,0.45
2023-12-30T02:45:33.697Z,0.75
2023-12-30T02:46:35.787Z,1.13
2023-12-30T02:47:37.972Z,0.32
2023-12-30T02:48:40.293Z,0.65
2023-12-30T02:49:46.272Z,0.60
2023-12-30T02:50:48.395Z,0.70
2023-12-30T02:51:51.017Z,0.30
2023-12-30T02:52:53.121Z,1.00
2023-12-30T02:53:56.069Z,0.50
2023-12-30T02:54:57.777Z,0.75
2023-12-30T02:55:59.687Z,0.60
2023-12-30T02:57:04.029Z,0.30
2023-12-30T02:58:06.838Z,0.20
2023-12-30T02:59:10.766Z,0.77
2023-12-30T03:00:12.874Z,0.73
2023-12-30T03:01:15.016Z,0.30
2023-12-30T03:02:17.089Z,0.43
2023-12-30T03:03:19.159Z,0.32
2023-12-30T03:04:22.895Z,0.47
2023-12-30T03:05:25.348Z,0.60
2023-12-30T03:06:28.651Z,0.50
2023-12-30T03:07:30.670Z,0.40
2023-12-30T03:08:33.339Z,0.38
2023-12-30T03:09:36.803Z,0.30
2023-12-30T03:10:39.235Z,0.35
2023-12-30T03:11:41.139Z,0.30
2023-12-30T03:12:43.858Z,0.60
2023-12-30T03:13:48.022Z,0.63
2023-12-30T03:14:49.776Z,0.63
2023-12-30T03:15:52.437Z,0.32
2023-12-30T03:16:54.245Z,0.43
2023-12-30T03:17:58.927Z,0.47
2023-12-30T03:19:00.916Z,0.52
2023-12-30T03:20:04.783Z,0.30
2023-12-30T03:21:10.335Z,0.40
2023-12-30T03:22:12.045Z,0.63
2023-12-30T03:23:14.312Z,0.47
2023-12-30T03:24:18.326Z,0.30
2023-12-30T03:25:21.522Z,0.50
2023-12-30T03:26:24.539Z,0.30
2023-12-30T03:27:26.648Z,0.38
2023-12-30T03:28:29.354Z,0.63
2023-12-30T03:29:33.564Z,0.30
2023-12-30T03:30:36.722Z,0.50
2023-12-30T03:31:38.759Z,0.52
2023-12-30T03:32:42.093Z,0.40
2023-12-30T03:34:45.827Z,0.30
2023-12-30T03:35:48.029Z,0.40
2023-12-30T03:36:49.719Z,0.70
2023-12-30T03:37:52.115Z,0.20
2023-12-30T03:38:54.282Z,0.40
2023-12-30T03:40:59.474Z,0.20
2023-12-30T03:42:01.300Z,0.63
2023-12-30T03:43:03.674Z,0.40
2023-12-30T03:44:05.743Z,0.35
2023-12-30T03:45:08.221Z,0.50
2023-12-30T03:46:10.349Z,0.52
2023-12-30T03:47:13.238Z,0.50
2023-12-30T03:48:15.121Z,0.60
2023-12-30T03:49:18.586Z,0.30
2023-12-30T03:50:22.425Z,0.70
2023-12-30T03:51:24.683Z,0.90
2023-12-30T03:52:28.127Z,0.55
2023-12-30T03:53:39.467Z,0.52
2023-12-30T03:54:41.203Z,0.57
2023-12-30T03:55:43.050Z,0.30
2023-12-30T03:56:45.104Z,0.30
2023-12-30T03:57:47.167Z,0.52
2023-12-30T03:58:48.930Z,0.45
2023-12-30T03:59:51.183Z,0.70
2023-12-30T04:00:53.444Z,0.30
2023-12-30T04:01:56.456Z,0.50
2023-12-30T04:02:58.339Z,0.52
2023-12-30T04:04:00.372Z,0.60
2023-12-30T04:05:02.421Z,0.45
2023-12-30T04:06:04.269Z,0.75
2023-12-30T04:07:06.226Z,0.30
2023-12-30T04:08:08.112Z,0.70
2023-12-30T04:09:09.857Z,0.43
2023-12-30T04:10:13.996Z,0.60
2023-12-30T04:11:15.821Z,0.30
2023-12-30T04:12:18.638Z,0.38
2023-12-30T04:13:20.639Z,0.50
2023-12-30T04:14:22.314Z,0.95
2023-12-30T04:15:24.540Z,0.60
2023-12-30T04:16:26.967Z,0.30
2023-12-30T04:17:28.808Z,0.50
2023-12-30T04:18:32.043Z,0.75
2023-12-30T04:19:34.912Z,0.63
2023-12-30T04:20:36.853Z,0.65
2023-12-30T04:21:38.679Z,0.40
2023-12-30T04:22:40.877Z,0.60
2023-12-30T04:23:43.632Z,0.57
2023-12-30T04:24:45.672Z,0.80
2023-12-30T04:25:47.780Z,0.70
2023-12-30T04:26:51.304Z,0.38
2023-12-30T04:27:53.289Z,0.40
2023-12-30T04:28:56.723Z,0.65
2023-12-30T04:29:59.034Z,0.30
2023-12-30T04:31:01.719Z,0.60
2023-12-30T04:32:03.679Z,0.50
2023-12-30T04:33:06.425Z,0.40
2023-12-30T04:34:11.319Z,0.63
2023-12-30T04:35:13.716Z,0.50
2023-12-30T04:36:18.253Z,0.63
2023-12-30T04:37:21.535Z,0.47
2023-12-30T04:38:24.495Z,0.52
2023-12-30T04:39:26.444Z,0.50
2023-12-30T04:40:35.418Z,0.20
2023-12-30T04:41:38.112Z,0.65
2023-12-30T04:43:42.128Z,0.40
2023-12-30T04:44:44.143Z,0.40
2023-12-30T04:45:46.759Z,0.40
2023-12-30T04:46:49.407Z,0.80
2023-12-30T04:47:54.912Z,0.68
2023-12-30T04:48:56.947Z,0.40
2023-12-30T04:49:58.834Z,0.88
2023-12-30T04:51:01.241Z,0.35
2023-12-30T04:52:03.103Z,0.90
2023-12-30T04:53:05.313Z,0.60
2023-12-30T04:54:07.340Z,0.63
2023-12-30T04:55:09.400Z,0.45
2023-12-30T04:56:18.730Z,0.40
2023-12-30T04:57:20.531Z,0.30
2023-12-30T04:58:22.705Z,0.25
2023-12-30T04:59:25.377Z,0.20
2023-12-30T05:00:27.443Z,0.50
2023-12-30T05:01:33.238Z,0.60
2023-12-30T05:02:36.580Z,0.10
2023-12-30T05:03:38.677Z,0.90
2023-12-30T05:04:43.859Z,0.40
2023-12-30T05:05:46.334Z,0.30
2023-12-30T05:06:48.124Z,0.40
2023-12-30T05:07:50.624Z,0.45
2023-12-30T05:08:54.204Z,0.30
2023-12-30T05:09:56.379Z,0.43
2023-12-30T05:10:58.442Z,0.73
2023-12-30T05:12:00.971Z,0.40
2023-12-30T05:14:06.124Z,0.30
2023-12-30T05:15:08.496Z,0.40
2023-12-30T05:17:14.116Z,0.47
2023-12-30T05:18:15.875Z,0.55
2023-12-30T05:19:20.704Z,0.43
2023-12-30T05:20:22.575Z,0.45
2023-12-30T05:21:26.460Z,0.55
2023-12-30T05:22:30.392Z,0.32
2023-12-30T05:23:35.362Z,0.40
2023-12-30T05:24:37.515Z,0.60
2023-12-30T05:25:39.297Z,0.55
2023-12-30T05:26:42.031Z,0.38
2023-12-30T05:27:43.894Z,0.55
2023-12-30T05:28:46.152Z,0.50
2023-12-30T05:29:48.003Z,0.50
2023-12-30T05:30:49.915Z,0.73
2023-12-30T05:31:52.197Z,0.32
2023-12-30T05:32:53.998Z,0.55
2023-12-30T05:33:56.373Z,0.43
2023-12-30T05:34:58.199Z,0.30
2023-12-30T05:35:59.981Z,0.17
2023-12-30T05:37:02.405Z,0.35
2023-12-30T05:38:04.857Z,0.45
2023-12-30T05:39:07.514Z,0.52
2023-12-30T05:40:10.536Z,0.50
2023-12-30T05:41:12.749Z,0.60
2023-12-30T05:42:15.983Z,1.35
2023-12-30T05:43:18.515Z,0.50
2023-12-30T05:44:20.587Z,0.55
2023-12-30T05:45:25.921Z,0.45
2023-12-30T05:46:29.429Z,1.02
2023-12-30T05:47:31.721Z,0.50
2023-12-30T05:48:37.170Z,0.93
2023-12-30T05:49:41.629Z,0.60
2023-12-30T05:50:43.485Z,0.52
2023-12-30T05:51:48.046Z,0.43
2023-12-30T05:52:49.968Z,0.60
2023-12-30T05:53:51.729Z,0.55
2023-12-30T05:54:54.251Z,0.43
2023-12-30T05:55:56.400Z,1.02
2023-12-30T05:56:58.420Z,0.55
2023-12-30T05:58:00.188Z,0.90
2023-12-30T05:59:02.577Z,0.47
2023-12-30T06:00:06.255Z,0.47
2023-12-30T06:01:14.285Z,0.80
2023-12-30T06:02:16.043Z,0.88
2023-12-30T06:03:18.428Z,0.88
2023-12-30T06:04:20.882Z,0.50
2023-12-30T06:06:25.275Z,0.50
2023-12-30T06:07:26.981Z,0.45
2023-12-30T06:08:28.914Z,0.77
2023-12-30T06:09:31.420Z,0.50
2023-12-30T06:10:36.280Z,0.63
2023-12-30T06:11:38.243Z,1.00
2023-12-30T06:12:40.019Z,0.63
2023-12-30T06:13:43.177Z,0.60
2023-12-30T06:14:45.352Z,1.00
2023-12-30T06:15:52.195Z,0.90
2023-12-30T06:16:54.197Z,0.65
2023-12-30T06:17:56.086Z,0.65
2023-12-30T06:18:57.910Z,0.47
2023-12-30T06:20:00.978Z,0.57
2023-12-30T06:21:05.035Z,0.57
2023-12-30T06:22:07.880Z,0.98
2023-12-30T06:23:09.822Z,0.47
2023-12-30T06:24:12.021Z,0.50
2023-12-30T06:25:14.467Z,0.80
2023-12-30T06:26:18.072Z,0.40
2023-12-30T06:27:21.424Z,0.40
2023-12-30T06:28:27.861Z,0.47
2023-12-30T06:29:33.313Z,0.52
2023-12-30T06:30:35.963Z,0.63
2023-12-30T06:31:42.847Z,0.50
2023-12-30T06:32:45.584Z,0.77
2023-12-30T06:33:49.077Z,0.43
2023-12-30T06:34:53.395Z,0.40
2023-12-30T06:35:55.170Z,0.75
2023-12-30T06:36:57.421Z,0.45
2023-12-30T06:37:59.832Z,0.68
2023-12-30T06:39:02.180Z,0.40
2023-12-30T06:40:04.724Z,0.60
2023-12-30T06:41:08.753Z,0.60
2023-12-30T06:42:10.936Z,0.77
2023-12-30T06:43:13.676Z,0.30
2023-12-30T06:44:15.823Z,0.63
2023-12-30T06:45:21.345Z,0.90
2023-12-30T06:46:23.256Z,0.63
2023-12-30T06:48:29.034Z,0.60
2023-12-30T06:50:34.097Z,0.20
2023-12-30T06:51:36.374Z,0.45
2023-12-30T06:52:38.993Z,0.85
2023-12-30T06:53:40.962Z,0.85
2023-12-30T06:54:42.916Z,0.63
2023-12-30T06:55:48.212Z,0.70
2023-12-30T06:56:51.011Z,0.22
2023-12-30T06:57:53.829Z,0.52
2023-12-30T06:58:56.371Z,0.90
2023-12-30T06:59:58.516Z,0.85
2023-12-30T07:01:01.068Z,0.70
2023-12-30T07:03:07.127Z,1.05
2023-12-30T07:04:11.188Z,0.75
2023-12-30T07:05:14.002Z,0.82
2023-12-30T07:06:16.430Z,0.82
2023-12-30T07:08:21.909Z,1.00
2023-12-30T07:09:24.286Z,1.15
2023-12-30T07:10:26.021Z,0.63
2023-12-30T07:11:27.890Z,1.00
2023-12-30T07:12:30.564Z,0.80
2023-12-30T07:14:38.402Z,0.63
2023-12-30T07:15:40.525Z,0.80
2023-12-30T07:16:42.266Z,1.00
2023-12-30T07:17:45.693Z,0.77
2023-12-30T07:18:47.981Z,1.02
2023-12-30T07:19:50.171Z,1.25
2023-12-30T07:20:52.499Z,0.73
2023-12-30T07:21:55.766Z,1.30
2023-12-30T07:22:59.302Z,1.27
2023-12-30T07:24:01.672Z,1.20
2023-12-30T07:25:03.832Z,0.63
2023-12-30T07:26:06.152Z,0.90
2023-12-30T07:27:08.246Z,0.95
2023-12-30T07:28:10.997Z,1.48
2023-12-30T07:29:14.330Z,1.10
2023-12-30T07:30:16.726Z,1.13
2023-12-30T07:31:19.246Z,1.08
2023-12-30T07:32:21.357Z,1.52
2023-12-30T07:33:23.708Z,0.93
2023-12-30T07:34:25.864Z,1.20
2023-12-30T07:35:30.776Z,1.20
2023-12-30T07:36:33.297Z,1.40
2023-12-30T07:37:36.716Z,1.20
2023-12-30T07:38:40.142Z,1.40
2023-12-30T07:39:42.251Z,1.73
2023-12-30T07:40:44.344Z,1.40
2023-12-30T07:41:46.283Z,1.58
2023-12-30T07:42:48.963Z,1.60
2023-12-30T07:43:51.004Z,1.30
2023-12-30T07:44:53.895Z,1.27
2023-12-30T07:45:56.279Z,1.13
2023-12-30T07:46:58.322Z,1.42
2023-12-30T07:48:00.535Z,1.48
2023-12-30T07:49:04.367Z,1.58
2023-12-30T07:50:07.466Z,1.33
2023-12-30T07:51:09.347Z,1.50
2023-12-30T07:52:12.488Z,1.55
2023-12-30T07:53:16.333Z,1.70
2023-12-30T07:54:18.310Z,2.10
2023-12-30T07:55:20.936Z,1.92
2023-12-30T07:56:23.507Z,1.67
2023-12-30T07:58:27.263Z,1.63
2023-12-30T07:59:30.035Z,1.75
2023-12-30T08:00:33.037Z,1.50
2023-12-30T08:01:36.098Z,1.65
2023-12-30T08:02:37.987Z,1.60
2023-12-30T08:03:40.173Z,1.48
2023-12-30T08:04:45.609Z,1.70
2023-12-30T08:05:47.832Z,1.98
2023-12-30T08:06:49.894Z,2.05
2023-12-30T08:07:53.388Z,1.52
2023-12-30T08:08:56.410Z,1.42
2023-12-30T08:09:58.516Z,1.23
2023-12-30T08:11:01.387Z,1.42
2023-12-30T08:12:04.420Z,1.70
2023-12-30T08:13:07.174Z,2.17
2023-12-30T08:14:09.914Z,1.33
2023-12-30T08:15:12.321Z,1.50
2023-12-30T08:16:15.379Z,1.33
2023-12-30T08:17:17.624Z,1.30
2023-12-30T08:18:23.806Z,1.42
2023-12-30T08:19:25.725Z,1.52
2023-12-30T08:20:27.824Z,1.98
2023-12-30T08:21:31.800Z,1.63
2023-12-30T08:22:34.188Z,1.75
2023-12-30T08:23:36.560Z,1.65
2023-12-30T08:24:38.846Z,1.48
2023-12-30T08:25:40.944Z,1.60
2023-12-30T08:26:42.755Z,1.50
2023-12-30T08:27:46.523Z,1.25
2023-12-30T08:28:48.660Z,1.42
2023-12-30T08:29:50.823Z,1.60
2023-12-30T08:30:56.037Z,1.40
2023-12-30T08:31:58.176Z,1.33
2023-12-30T08:33:06.031Z,1.05
2023-12-30T08:34:08.355Z,1.80
2023-12-30T08:35:11.402Z,1.45
2023-12-30T08:36:13.632Z,1.92
2023-12-30T08:37:15.371Z,1.88
2023-12-30T08:38:20.145Z,1.10
2023-12-30T08:39:22.265Z,1.13
2023-12-30T08:40:26.090Z,1.13
2023-12-30T08:41:29.300Z,1.08
2023-12-30T08:42:36.044Z,1.05
2023-12-30T08:43:38.137Z,1.10
2023-12-30T08:44:44.965Z,1.33
2023-12-30T08:45:47.196Z,1.40
2023-12-30T08:46:49.263Z,1.30
2023-12-30T08:47:51.776Z,1.05
2023-12-30T08:49:57.300Z,1.40
2023-12-30T08:50:59.364Z,1.13
2023-12-30T08:52:01.295Z,1.20
2023-12-30T08:53:03.990Z,1.05
2023-12-30T08:54:06.329Z,1.67
2023-12-30T08:55:11.979Z,0.93
2023-12-30T08:56:14.200Z,0.90
2023-12-30T08:57:18.542Z,0.90
2023-12-30T08:58:20.387Z,1.45
2023-12-30T08:59:30.932Z,1.10
2023-12-30T09:00:36.747Z,1.42
2023-12-30T09:01:38.637Z,1.10
2023-12-30T09:02:49.094Z,1.15
2023-12-30T09:03:50.962Z,1.27
2023-12-30T09:04:54.784Z,1.38
2023-12-30T09:05:56.625Z,0.98
2023-12-30T09:06:59.011Z,1.33
2023-12-30T09:09:05.963Z,1.05
2023-12-30T09:10:08.913Z,1.30
2023-12-30T09:11:21.318Z,1.10
2023-12-30T09:12:24.136Z,0.70
2023-12-30T09:13:26.037Z,0.63
2023-12-30T09:14:27.909Z,1.02
2023-12-30T09:15:30.196Z,1.30
2023-12-30T09:16:33.538Z,1.20
2023-12-30T09:17:36.177Z,1.05
2023-12-30T09:18:39.475Z,1.15
2023-12-30T09:19:43.956Z,0.93
2023-12-30T09:20:46.199Z,1.00
2023-12-30T09:21:48.950Z,1.10
2023-12-30T09:22:50.836Z,0.70
2023-12-30T09:23:54.040Z,1.35
2023-12-30T09:24:56.231Z,1.38
2023-12-30T09:25:58.415Z,0.65
2023-12-30T09:27:00.935Z,1.13
2023-12-30T09:28:02.728Z,1.00
2023-12-30T09:29:06.715Z,0.73
2023-12-30T09:30:10.030Z,1.10
2023-12-30T09:31:12.603Z,0.75
2023-12-30T09:32:14.534Z,0.80
2023-12-30T09:33:16.936Z,0.85
2023-12-30T09:34:29.584Z,1.10
2023-12-30T09:35:36.107Z,0.90
2023-12-30T09:36:37.824Z,0.80
2023-12-30T09:37:39.820Z,1.23
2023-12-30T09:38:41.582Z,0.98
2023-12-30T09:39:47.646Z,1.10
2023-12-30T09:40:50.070Z,1.00
2023-12-30T09:41:52.289Z,0.90
2023-12-30T09:42:54.960Z,0.98
2023-12-30T09:44:00.288Z,1.00
2023-12-30T09:45:03.367Z,0.82
2023-12-30T09:47:11.957Z,0.40
2023-12-30T09:48:14.392Z,0.98
2023-12-30T09:49:19.431Z,0.88
2023-12-30T09:50:21.250Z,0.63
2023-12-30T09:51:23.611Z,0.93
2023-12-30T09:52:26.151Z,0.80
2023-12-30T09:53:30.918Z,0.68
2023-12-30T09:54:45.525Z,0.57
2023-12-30T09:55:54.706Z,0.80
2023-12-30T09:57:00.361Z,0.68
2023-12-30T09:58:02.793Z,1.00
2023-12-30T10:00:07.159Z,0.65
2023-12-30T10:01:09.106Z,0.60
2023-12-30T10:02:11.438Z,0.80
2023-12-30T10:03:14.779Z,0.80
2023-12-30T10:04:16.820Z,0.82
2023-12-30T10:05:19.007Z,0.65
2023-12-30T10:06:22.763Z,0.50
2023-12-30T10:07:25.565Z,1.10
2023-12-30T10:08:28.777Z,0.98
2023-12-30T10:09:33.453Z,0.93
2023-12-30T10:10:50.846Z,0.75
2023-12-30T10:11:52.604Z,1.02
2023-12-30T10:12:57.405Z,1.23
2023-12-30T10:13:59.292Z,0.35
2023-12-30T10:15:01.852Z,0.80
2023-12-30T10:16:07.224Z,0.85
2023-12-30T10:17:09.450Z,0.73
2023-12-30T10:18:11.765Z,0.70
2023-12-30T10:19:15.250Z,1.20
2023-12-30T10:20:24.377Z,0.80
2023-12-30T10:21:26.951Z,0.90
2023-12-30T10:23:32.331Z,0.95
2023-12-30T10:24:35.062Z,1.10
2023-12-30T10:25:37.540Z,1.10
2023-12-30T10:26:41.205Z,1.30
2023-12-30T10:27:43.066Z,1.00
2023-12-30T10:28:44.870Z,1.20
2023-12-30T10:29:59.932Z,1.23
2023-12-30T10:31:03.811Z,1.13
2023-12-30T10:32:09.927Z,1.10
2023-12-30T10:33:12.842Z,1.00
2023-12-30T10:34:21.680Z,0.90
2023-12-30T10:35:25.026Z,1.25
2023-12-30T10:36:30.727Z,0.70
2023-12-30T10:37:33.205Z,0.70
2023-12-30T10:38:38.319Z,1.00
2023-12-30T10:39:42.728Z,0.50
2023-12-30T10:40:46.335Z,0.60
2023-12-30T10:41:50.113Z,0.80
2023-12-30T10:42:52.271Z,0.70
2023-12-30T10:43:54.788Z,0.70
2023-12-30T10:44:56.940Z,1.42
2023-12-30T10:46:01.075Z,0.77
2023-12-30T10:47:04.225Z,0.55
2023-12-30T10:48:09.564Z,0.52
2023-12-30T10:49:12.424Z,0.57
2023-12-30T10:50:15.382Z,0.50
2023-12-30T10:51:23.524Z,0.75
2023-12-30T10:52:28.243Z,0.90
2023-12-30T10:53:40.040Z,0.55
2023-12-30T10:54:43.686Z,0.70
2023-12-30T10:55:51.734Z,0.45
2023-12-30T10:56:59.810Z,0.60
2023-12-30T10:58:07.815Z,0.80
2023-12-30T10:59:10.843Z,0.80
2023-12-30T11:00:16.596Z,0.70
2023-12-30T11:01:20.752Z,0.65
2023-12-30T11:02:22.907Z,0.75
2023-12-30T11:03:25.626Z,0.80
2023-12-30T11:04:31.013Z,0.55
2023-12-30T11:05:50.264Z,0.80
2023-12-30T11:06:58.216Z,0.60
2023-12-30T11:08:00.045Z,0.50
2023-12-30T11:09:10.627Z,0.60
2023-12-30T11:10:20.777Z,0.50
2023-12-30T11:11:23.967Z,0.55
2023-12-30T11:12:28.915Z,0.70
2023-12-30T11:13:38.300Z,0.80
2023-12-30T11:14:40.055Z,1.00
2023-12-30T11:15:42.537Z,0.90
2023-12-30T11:16:45.234Z,0.85
2023-12-30T11:17:48.824Z,0.85
2023-12-30T11:18:52.478Z,1.00
2023-12-30T11:19:56.457Z,0.68
2023-12-30T11:20:58.686Z,1.05
2023-12-30T11:22:02.156Z,0.60
2023-12-30T11:23:05.364Z,0.82
2023-12-30T11:24:15.408Z,0.70
2023-12-30T11:25:19.467Z,0.80
2023-12-30T11:26:22.443Z,0.80
2023-12-30T11:27:24.307Z,0.70
2023-12-30T11:28:26.387Z,0.70
2023-12-30T11:29:29.493Z,0.50
2023-12-30T11:30:36.403Z,0.90
2023-12-30T11:31:41.121Z,0.65
2023-12-30T11:32:43.587Z,0.65
2023-12-30T11:33:45.854Z,0.70
2023-12-30T11:34:49.848Z,0.65
2023-12-30T11:35:53.078Z,0.60
2023-12-30T11:36:55.517Z,0.52
2023-12-30T11:37:58.651Z,0.73
2023-12-30T11:39:01.389Z,0.50
2023-12-30T11:40:06.287Z,0.57
2023-12-30T11:41:08.548Z,0.68
2023-12-30T11:42:10.399Z,0.90
2023-12-30T11:43:12.550Z,0.40
2023-12-30T11:44:16.577Z,0.60
2023-12-30T11:45:18.593Z,0.70
2023-12-30T11:46:20.528Z,0.50
2023-12-30T11:47:23.172Z,0.68
2023-12-30T11:48:25.285Z,0.28
2023-12-30T11:49:28.011Z,0.50
2023-12-30T11:50:30.834Z,0.57
2023-12-30T11:51:35.928Z,0.60
2023-12-30T11:52:38.330Z,0.30
2023-12-30T11:53:40.174Z,0.40
2023-12-30T11:54:42.378Z,0.40
2023-12-30T11:55:46.249Z,0.40
2023-12-30T11:56:48.208Z,0.50
2023-12-30T11:57:50.002Z,0.55
2023-12-30T11:58:53.065Z,0.77
2023-12-30T11:59:55.162Z,0.60
2023-12-30T12:00:57.307Z,0.38
2023-12-30T12:02:10.033Z,0.40
2023-12-30T12:03:12.484Z,0.70
2023-12-30T12:04:14.995Z,0.68
2023-12-30T12:05:17.313Z,0.70
2023-12-30T12:06:21.652Z,0.70
2023-12-30T12:07:24.480Z,0.57
2023-12-30T12:08:26.315Z,0.55
2023-12-30T12:09:28.785Z,0.50
2023-12-30T12:10:30.826Z,0.85
2023-12-30T12:11:34.115Z,0.85
2023-12-30T12:12:37.444Z,0.10
2023-12-30T12:13:41.381Z,0.77
2023-12-30T12:14:54.118Z,0.80
2023-12-30T12:15:57.527Z,0.50
2023-12-30T12:17:05.705Z,0.45
2023-12-30T12:18:09.093Z,0.63
2023-12-30T12:19:11.267Z,0.90
2023-12-30T12:20:13.205Z,0.43
2023-12-30T12:21:15.209Z,0.82
2023-12-30T12:22:17.898Z,0.65
2023-12-30T12:23:24.180Z,0.85
2023-12-30T12:24:26.753Z,0.70
2023-12-30T12:25:30.036Z,0.50
2023-12-30T12:26:33.397Z,0.47
2023-12-30T12:27:36.598Z,0.40
2023-12-30T12:28:38.910Z,0.68
2023-12-30T12:29:48.252Z,0.17
2023-12-30T12:30:53.328Z,0.75
2023-12-30T12:31:55.348Z,0.55
2023-12-30T12:32:57.688Z,0.30
2023-12-30T12:34:00.015Z,0.40
2023-12-30T12:35:02.458Z,0.70
2023-12-30T12:37:09.758Z,0.52
2023-12-30T12:38:12.095Z,0.85
2023-12-30T12:39:14.933Z,0.50
2023-12-30T12:40:18.082Z,0.80
2023-12-30T12:41:19.825Z,0.70
2023-12-30T12:42:27.836Z,0.35
2023-12-30T12:43:33.494Z,0.65
2023-12-30T12:44:35.263Z,0.60
2023-12-30T12:45:37.458Z,0.50
2023-12-30T12:46:39.616Z,0.60
2023-12-30T12:47:42.294Z,0.60
2023-12-30T12:48:44.642Z,0.60
2023-12-30T12:49:46.915Z,0.65
2023-12-30T12:50:51.276Z,0.95
2023-12-30T12:51:53.517Z,0.68
2023-12-30T12:52:55.316Z,0.32
2023-12-30T12:53:58.547Z,0.55
2023-12-30T12:55:01.097Z,0.55
2023-12-30T12:56:05.817Z,0.77
2023-12-30T12:57:07.957Z,0.50
2023-12-30T12:58:10.143Z,0.95
2023-12-30T12:59:14.746Z,0.50
2023-12-30T13:00:19.426Z,0.65
2023-12-30T13:01:21.218Z,0.65
2023-12-30T13:02:25.361Z,0.52
2023-12-30T13:03:28.027Z,0.50
2023-12-30T13:04:31.016Z,0.65
2023-12-30T13:05:35.622Z,0.55
2023-12-30T13:06:37.575Z,0.70
2023-12-30T13:07:44.349Z,0.40
2023-12-30T13:08:48.523Z,0.60
2023-12-30T13:10:18.428Z,0.50
2023-12-30T13:11:36.997Z,0.55
2023-12-30T13:12:39.900Z,0.80
2023-12-30T13:13:49.529Z,0.68
2023-12-30T13:14:56.901Z,0.50
2023-12-30T13:16:01.708Z,0.40
2023-12-30T13:17:09.374Z,0.57
2023-12-30T13:18:15.561Z,0.40
2023-12-30T13:19:18.563Z,0.50
2023-12-30T13:20:20.931Z,0.28
2023-12-30T13:21:23.499Z,0.90
2023-12-30T13:22:25.527Z,0.50
2023-12-30T13:23:27.809Z,0.77
2023-12-30T13:24:30.604Z,0.60
2023-12-30T13:25:33.298Z,0.82
2023-12-30T13:26:35.781Z,0.50
2023-12-30T13:27:37.963Z,0.80
2023-12-30T13:28:40.198Z,0.45
2023-12-30T13:29:42.883Z,0.50
2023-12-30T13:30:44.885Z,0.80
2023-12-30T13:31:48.850Z,0.38
2023-12-30T13:32:57.923Z,0.60
2023-12-30T13:34:00.364Z,0.80
2023-12-30T13:35:02.516Z,0.55
2023-12-30T13:36:07.785Z,0.82
2023-12-30T13:37:10.106Z,0.80
2023-12-30T13:38:16.867Z,0.80
2023-12-30T13:39:19.203Z,0.40
2023-12-30T13:40:21.058Z,0.60
2023-12-30T13:41:25.800Z,0.70
2023-12-30T13:42:28.282Z,0.68
2023-12-30T13:43:31.256Z,0.80
2023-12-30T13:44:38.746Z,0.82
2023-12-30T13:45:45.884Z,0.60
2023-12-30T13:46:59.724Z,0.40
2023-12-30T13:48:07.653Z,0.30
2023-12-30T13:49:10.365Z,0.40
2023-12-30T13:50:21.120Z,0.70
2023-12-30T13:51:23.265Z,0.50
2023-12-30T13:52:28.284Z,0.60
2023-12-30T13:53:30.332Z,0.57
2023-12-30T13:54:32.763Z,0.50
2023-12-30T13:56:43.643Z,0.22
2023-12-30T13:57:48.941Z,0.50
2023-12-30T13:58:51.253Z,0.40
2023-12-30T13:59:54.529Z,0.20
2023-12-30T14:00:57.652Z,1.00
2023-12-30T14:02:00.677Z,0.77
2023-12-30T14:03:06.061Z,0.43
2023-12-30T14:04:09.137Z,0.82
2023-12-30T14:05:28.918Z,0.68
2023-12-30T14:06:36.433Z,0.85
2023-12-30T14:07:38.093Z,0.52
2023-12-30T14:08:43.744Z,0.55
2023-12-30T14:10:12.186Z,1.10
2023-12-30T14:11:34.823Z,0.43
2023-12-30T14:12:38.040Z,0.60
2023-12-30T14:13:40.058Z,0.80
2023-12-30T14:14:46.469Z,0.90
2023-12-30T14:15:49.441Z,0.50
2023-12-30T14:16:54.701Z,0.38
2023-12-30T14:17:59.335Z,0.68
2023-12-30T14:19:04.808Z,0.60
2023-12-30T14:20:07.507Z,0.60
2023-12-30T14:21:10.225Z,0.77
2023-12-30T14:22:15.739Z,0.50
2023-12-30T14:23:18.619Z,0.82
2023-12-30T14:24:21.216Z,1.13
2023-12-30T14:25:23.467Z,0.90
2023-12-30T14:26:26.644Z,0.43
2023-12-30T14:27:28.722Z,0.55
2023-12-30T14:28:31.544Z,0.40
2023-12-30T14:29:34.797Z,0.63
2023-12-30T14:30:36.652Z,0.75